Time;durP1;ratioP1;P1;durP2;ratioP2;P2;SDS_P1;SDS_P2;PMS_P1;PMS_P2;Temp;Humidity;BMP_temperature;BMP_pressure;BME280_temperature;BME280_humidity;BME280_pressure;Samples;Min_cycle;Max_cycle;Signal;HPM_P1;HPM_P2
2023/09/18 00:02:11;;;;;;;12.50;9.80;;;;;;;19.19;100.00;100394.09;5057945;28;20410;-68
2023/09/18 00:04:36;;;;;;;13.27;10.50;;;;;;;19.19;100.00;100386.69;5058375;28;20044;-68
2023/09/18 00:07:02;;;;;;;11.00;9.80;;;;;;;19.11;100.00;100384.59;5057735;28;20033;-68
2023/09/18 00:09:27;;;;;;;12.20;9.88;;;;;;;19.14;100.00;100381.25;5052881;28;20028;-68
2023/09/18 00:11:52;;;;;;;11.50;9.80;;;;;;;19.11;100.00;100384.59;5052908;28;20033;-68
2023/09/18 00:14:18;;;;;;;11.27;10.10;;;;;;;19.10;100.00;100380.22;5053987;28;20093;-68
2023/09/18 00:16:43;;;;;;;15.90;9.93;;;;;;;19.09;100.00;100379.41;5041281;28;20186;-67
2023/09/18 00:19:10;;;;;;;11.60;9.82;;;;;;;19.05;100.00;100372.91;5054573;28;20475;-67
2023/09/18 00:21:36;;;;;;;9.85;8.90;;;;;;;19.13;100.00;100365.94;5043803;28;20113;-67
2023/09/18 00:24:01;;;;;;;12.75;9.15;;;;;;;19.10;100.00;100352.81;5062973;28;20464;-69
2023/09/18 00:26:27;;;;;;;11.45;9.90;;;;;;;19.09;100.00;100353.91;5061349;28;20062;-68
2023/09/18 00:28:52;;;;;;;11.77;8.73;;;;;;;19.11;100.00;100346.19;5054534;28;20151;-68
2023/09/18 00:31:19;;;;;;;12.07;8.88;;;;;;;19.10;100.00;100339.91;5057520;28;20032;-68
2023/09/18 00:33:44;;;;;;;10.80;8.63;;;;;;;19.09;100.00;100331.97;5056678;28;20036;-67
2023/09/18 00:36:10;;;;;;;12.00;8.50;;;;;;;19.09;100.00;100323.75;5057976;28;20029;-68
2023/09/18 00:38:35;;;;;;;12.90;8.82;;;;;;;19.07;100.00;100318.56;5056105;28;20025;-68
2023/09/18 00:41:00;;;;;;;10.82;8.73;;;;;;;19.08;100.00;100324.84;5057686;28;20040;-68
2023/09/18 00:43:26;;;;;;;12.20;8.57;;;;;;;19.08;100.00;100319.38;5055836;28;20071;-68
2023/09/18 00:45:51;;;;;;;10.68;8.60;;;;;;;19.03;100.00;100311.22;5052969;28;20112;-68
2023/09/18 00:48:17;;;;;;;8.95;8.05;;;;;;;19.05;100.00;100311.72;5062959;28;20032;-68
2023/09/18 00:50:46;;;;;;;10.88;7.93;;;;;;;19.04;100.00;100307.38;5056636;28;20059;-68
2023/09/18 00:53:21;;;;;;;10.15;8.43;;;;;;;19.05;100.00;100309.81;5052804;28;21178;-68
2023/09/18 00:55:47;;;;;;;9.10;7.65;;;;;;;19.05;100.00;100306.25;5057357;28;20037;-68
2023/09/18 00:58:13;;;;;;;11.70;8.25;;;;;;;19.02;100.00;100295.88;5060452;28;20498;-69
2023/09/18 01:00:40;;;;;;;11.85;7.72;;;;;;;19.04;100.00;100297.22;5052014;28;20032;-69
2023/09/18 01:03:06;;;;;;;10.80;7.80;;;;;;;19.00;100.00;100289.88;5061327;28;20048;-69
2023/09/18 01:05:35;;;;;;;10.88;7.97;;;;;;;18.98;100.00;100279.19;5058243;28;20112;-69
2023/09/18 01:08:01;;;;;;;8.52;7.10;;;;;;;19.02;100.00;100271.19;5058849;28;20380;-69
2023/09/18 01:10:53;;;;;;;11.30;7.30;;;;;;;19.04;100.00;100263.50;5056709;28;20037;-69
2023/09/18 01:13:24;;;;;;;11.40;7.38;;;;;;;19.04;100.00;100260.75;5058471;28;20040;-68
2023/09/18 01:16:01;;;;;;;11.90;7.50;;;;;;;19.06;100.00;100262.06;5057468;28;20086;-68
2023/09/18 01:18:27;;;;;;;11.57;6.97;;;;;;;19.05;100.00;100246.75;5057064;28;20032;-69
2023/09/18 01:20:52;;;;;;;12.27;7.47;;;;;;;19.08;100.00;100239.84;5060297;28;20025;-68
2023/09/18 01:23:17;;;;;;;8.63;6.53;;;;;;;19.04;100.00;100247.84;5055982;28;20086;-68
2023/09/18 01:25:43;;;;;;;10.90;6.70;;;;;;;19.07;100.00;100251.94;5041866;28;20123;-68
2023/09/18 01:28:08;;;;;;;8.07;6.72;;;;;;;19.10;100.00;100256.81;5053892;28;20392;-68
2023/09/18 01:30:34;;;;;;;9.30;6.32;;;;;;;19.10;100.00;100252.16;5040113;28;20040;-68
2023/09/18 01:33:02;;;;;;;11.45;6.97;;;;;;;19.05;100.00;100249.50;5057868;28;20029;-68
2023/09/18 01:35:29;;;;;;;11.38;6.63;;;;;;;19.06;100.00;100251.09;5057860;28;20484;-69
2023/09/18 01:37:59;;;;;;;12.20;7.03;;;;;;;19.05;100.00;100260.47;5062590;28;20063;-68
2023/09/18 01:40:26;;;;;;;11.00;6.38;;;;;;;19.05;100.00;100265.09;5052774;28;20097;-68
2023/09/18 01:42:52;;;;;;;9.85;6.72;;;;;;;19.05;100.00;100256.88;5034707;28;20039;-69
2023/09/18 01:45:17;;;;;;;10.40;6.30;;;;;;;19.04;100.00;100256.06;5057401;28;20033;-69
2023/09/18 01:47:43;;;;;;;8.70;6.10;;;;;;;19.04;100.00;100269.78;5057939;28;20484;-69
2023/09/18 01:50:09;;;;;;;9.27;5.65;;;;;;;19.10;100.00;100259.56;5053157;28;20526;-69
2023/09/18 01:52:34;;;;;;;12.85;5.88;;;;;;;19.11;100.00;100259.28;5056846;28;20025;-68
2023/09/18 01:55:00;;;;;;;9.48;5.90;;;;;;;19.13;100.00;100250.75;5054180;28;20032;-68
2023/09/18 01:57:26;;;;;;;13.90;5.72;;;;;;;19.15;100.00;100256.75;5054730;28;20039;-68
2023/09/18 01:59:51;;;;;;;14.25;5.55;;;;;;;19.15;100.00;100248.50;5054597;28;20111;-69
2023/09/18 02:02:16;;;;;;;12.50;5.88;;;;;;;19.18;100.00;100239.69;5057050;28;20056;-68
2023/09/18 02:04:41;;;;;;;13.77;5.85;;;;;;;19.16;100.00;100239.19;5054895;28;20049;-69
2023/09/18 02:07:07;;;;;;;9.35;5.53;;;;;;;19.18;100.00;100241.63;5053325;28;20028;-69
2023/09/18 02:09:32;;;;;;;9.40;5.40;;;;;;;19.20;100.00;100239.38;5056314;28;20033;-68
2023/09/18 02:11:58;;;;;;;8.30;5.90;;;;;;;19.14;100.00;100233.16;5054780;28;20029;-69
2023/09/18 02:14:23;;;;;;;9.95;5.35;;;;;;;19.20;100.00;100237.44;5052197;28;20043;-69
2023/09/18 02:16:49;;;;;;;9.52;5.05;;;;;;;19.17;100.00;100240.00;5056720;28;20048;-68
2023/09/18 02:19:14;;;;;;;9.77;5.57;;;;;;;19.22;100.00;100237.16;5057843;28;20028;-69
2023/09/18 02:21:40;;;;;;;12.23;5.40;;;;;;;19.19;100.00;100224.88;5056117;28;20182;-69
2023/09/18 02:24:07;;;;;;;13.88;5.30;;;;;;;19.19;100.00;100221.28;5051411;28;22064;-68
2023/09/18 02:26:33;;;;;;;10.85;5.13;;;;;;;19.18;100.00;100217.75;5036482;28;20048;-68
2023/09/18 02:29:00;;;;;;;12.90;5.53;;;;;;;19.16;100.00;100208.19;5055467;28;20024;-69
2023/09/18 02:31:25;;;;;;;13.13;4.93;;;;;;;19.17;100.00;100196.91;5054281;28;20079;-69
2023/09/18 02:33:51;;;;;;;10.65;5.10;;;;;;;19.17;100.00;100190.63;5055473;28;20036;-68
2023/09/18 02:36:16;;;;;;;9.73;5.07;;;;;;;19.16;100.00;100195.31;5060445;28;20097;-68
2023/09/18 02:38:43;;;;;;;6.97;5.05;;;;;;;19.16;100.00;100189.81;5056705;28;20035;-68
2023/09/18 02:41:08;;;;;;;8.55;4.80;;;;;;;19.16;100.00;100195.31;5056042;28;20029;-68
2023/09/18 02:43:34;;;;;;;10.20;4.93;;;;;;;19.18;100.00;100187.56;5051675;28;20056;-67
2023/09/18 02:45:59;;;;;;;10.90;5.10;;;;;;;19.16;100.00;100176.09;5058898;28;20070;-68
2023/09/18 02:48:24;;;;;;;11.05;4.97;;;;;;;19.17;100.00;100166.75;5053325;28;20052;-68
2023/09/18 02:50:50;;;;;;;12.25;5.38;;;;;;;19.19;100.00;100164.53;5054265;28;20499;-68
2023/09/18 02:53:22;;;;;;;13.13;5.22;;;;;;;19.21;100.00;100162.28;5039423;28;20028;-68
2023/09/18 02:55:51;;;;;;;13.05;4.55;;;;;;;19.27;100.00;100174.81;5059191;28;20041;-68
2023/09/18 02:58:18;;;;;;;14.13;4.82;;;;;;;19.31;100.00;100164.06;5052499;28;20033;-68
2023/09/18 03:00:45;;;;;;;12.10;4.82;;;;;;;19.34;100.00;100162.63;5051767;28;20130;-68
2023/09/18 03:03:11;;;;;;;10.93;4.88;;;;;;;19.34;100.00;100141.53;5057498;28;20112;-68
2023/09/18 03:05:37;;;;;;;16.00;5.30;;;;;;;19.35;100.00;100145.06;5056994;28;20070;-68
2023/09/18 03:08:02;;;;;;;13.18;4.93;;;;;;;19.35;100.00;100131.34;5052982;28;20037;-68
2023/09/18 03:10:32;;;;;;;9.20;4.32;;;;;;;19.36;100.00;100128.31;5034346;28;20029;-68
2023/09/18 03:12:57;;;;;;;11.88;5.15;;;;;;;19.31;100.00;100125.66;5053149;28;20159;-69
2023/09/18 03:15:22;;;;;;;11.93;5.32;;;;;;;19.30;100.00;100130.31;5054523;28;20436;-68
2023/09/18 03:17:50;;;;;;;9.18;4.80;;;;;;;19.29;100.00;100120.47;5058508;28;20032;-68
2023/09/18 03:20:15;;;;;;;13.65;5.30;;;;;;;19.32;100.00;100119.03;5051549;28;20040;-68
2023/09/18 03:22:41;;;;;;;10.95;4.88;;;;;;;19.30;100.00;100135.81;5035656;28;20457;-68
2023/09/18 03:25:07;;;;;;;16.80;5.40;;;;;;;19.27;100.00;100135.59;5051440;28;20032;-68
2023/09/18 03:27:32;;;;;;;17.60;5.65;;;;;;;19.27;100.00;100136.41;5057345;28;20083;-68
2023/09/18 03:29:58;;;;;;;10.50;4.70;;;;;;;19.26;100.00;100131.22;5059837;28;20033;-68
2023/09/18 03:32:23;;;;;;;11.55;4.80;;;;;;;19.26;100.00;100140.28;5054261;28;20036;-68
2023/09/18 03:34:52;;;;;;;8.98;4.65;;;;;;;19.26;100.00;100150.41;5053216;28;20099;-68
2023/09/18 03:37:17;;;;;;;11.63;4.90;;;;;;;19.30;100.00;100154.19;5054388;28;20435;-68
2023/09/18 03:39:42;;;;;;;10.27;5.10;;;;;;;19.30;100.00;100152.25;5057523;28;20063;-68
2023/09/18 03:42:07;;;;;;;14.55;5.10;;;;;;;19.29;100.00;100150.66;5054822;28;20128;-68
2023/09/18 03:44:33;;;;;;;11.45;4.97;;;;;;;19.30;100.00;100137.75;5061100;28;20032;-68
2023/09/18 03:46:58;;;;;;;16.55;5.57;;;;;;;19.34;100.00;100162.63;5055636;28;20120;-68
2023/09/18 03:49:23;;;;;;;13.55;5.43;;;;;;;19.34;100.00;100152.50;5063422;28;20467;-68
2023/09/18 03:51:49;;;;;;;14.93;5.72;;;;;;;19.34;100.00;100151.66;5061033;28;20163;-69
2023/09/18 03:54:14;;;;;;;7.85;4.90;;;;;;;19.34;100.00;100155.22;5057908;28;20191;-69
2023/09/18 03:56:40;;;;;;;11.65;5.10;;;;;;;19.35;100.00;100142.31;5058262;28;20033;-68
2023/09/18 03:59:06;;;;;;;10.15;5.18;;;;;;;19.32;100.00;100145.66;5057748;28;20037;-68
2023/09/18 04:01:31;;;;;;;16.50;5.50;;;;;;;19.34;100.00;100148.91;5057393;28;20029;-68
2023/09/18 04:03:57;;;;;;;10.55;5.15;;;;;;;19.34;100.00;100163.47;5061153;28;20127;-68
2023/09/18 04:06:24;;;;;;;12.25;5.25;;;;;;;19.32;100.00;100178.59;5056391;28;20118;-68
2023/09/18 04:08:51;;;;;;;9.02;5.53;;;;;;;19.30;100.00;100179.69;5056587;28;20433;-68
2023/09/18 04:11:16;;;;;;;7.88;5.05;;;;;;;19.28;100.00;100172.91;5057378;28;20400;-68
2023/09/18 04:13:41;;;;;;;12.13;5.95;;;;;;;19.26;100.00;100173.19;5056317;28;20035;-68
2023/09/18 04:16:07;;;;;;;13.13;6.00;;;;;;;19.23;100.00;100153.75;5057482;28;20090;-68
2023/09/18 04:18:33;;;;;;;12.18;6.03;;;;;;;19.20;100.00;100163.41;5056816;28;20035;-68
2023/09/18 04:20:58;;;;;;;11.45;6.20;;;;;;;19.19;100.00;100145.34;5057021;28;20111;-69
2023/09/18 04:23:25;;;;;;;11.35;6.05;;;;;;;19.18;100.00;100134.66;5058848;28;20491;-68
2023/09/18 04:25:52;;;;;;;15.25;6.47;;;;;;;19.12;100.00;100134.72;5060906;28;20878;-68
2023/09/18 04:28:19;;;;;;;15.75;7.10;;;;;;;19.13;100.00;100128.16;5061028;28;20179;-68
2023/09/18 04:30:45;;;;;;;11.13;5.88;;;;;;;19.11;100.00;100132.28;5064044;28;20112;-68
2023/09/18 04:33:12;;;;;;;12.90;6.00;;;;;;;19.10;100.00;100127.94;5059471;28;20029;-68
2023/09/18 04:35:39;;;;;;;15.18;6.57;;;;;;;19.10;100.00;100125.19;5059252;28;20029;-68
2023/09/18 04:38:06;;;;;;;11.10;6.20;;;;;;;19.10;100.00;100125.19;5054614;28;20028;-68
2023/09/18 04:40:32;;;;;;;11.10;6.20;;;;;;;19.07;100.00;100101.94;5057289;28;20040;-69
2023/09/18 04:43:01;;;;;;;9.02;6.10;;;;;;;19.06;100.00;100088.50;5055093;28;20025;-68
2023/09/18 04:45:26;;;;;;;14.35;6.63;;;;;;;19.06;100.00;100080.28;5055415;28;20442;-69
2023/09/18 04:47:53;;;;;;;12.85;6.38;;;;;;;19.03;100.00;100075.41;5058320;28;20028;-69
2023/09/18 04:50:19;;;;;;;14.07;6.50;;;;;;;19.04;100.00;100071.56;5057477;28;20483;-68
2023/09/18 04:52:44;;;;;;;13.35;7.10;;;;;;;19.04;100.00;100060.59;5054480;28;20039;-69
2023/09/18 04:55:10;;;;;;;12.10;6.82;;;;;;;19.03;100.00;100069.94;5058917;28;20033;-68
2023/09/18 04:57:35;;;;;;;18.67;7.25;;;;;;;19.01;100.00;100066.66;5057609;28;20036;-69
2023/09/18 05:00:02;;;;;;;12.45;6.80;;;;;;;19.00;100.00;100062.31;5057179;28;20353;-69
2023/09/18 05:02:27;;;;;;;12.75;6.85;;;;;;;18.98;100.00;100065.34;5056686;28;20115;-68
2023/09/18 05:04:53;;;;;;;11.48;6.57;;;;;;;18.98;100.00;100064.50;5037758;28;20151;-68
2023/09/18 05:07:18;;;;;;;14.98;7.07;;;;;;;18.94;100.00;100059.63;5053407;28;20083;-68
2023/09/18 05:09:43;;;;;;;11.45;6.72;;;;;;;18.94;100.00;100062.38;5055154;28;20028;-68
2023/09/18 05:12:13;;;;;;;12.18;7.03;;;;;;;18.93;100.00;100063.50;5058820;28;20048;-68
2023/09/18 05:14:43;;;;;;;11.98;7.03;;;;;;;18.88;100.00;100071.81;5053116;28;20376;-68
2023/09/18 05:17:15;;;;;;;9.60;5.53;;;;;;;18.90;100.00;100077.81;5054608;28;20040;-68
2023/09/18 05:19:40;;;;;;;8.57;4.30;;;;;;;18.91;100.00;100078.63;5059908;28;20171;-68
2023/09/18 05:22:06;;;;;;;7.95;4.88;;;;;;;18.88;100.00;100088.25;5061848;28;20111;-68
2023/09/18 05:24:31;;;;;;;8.15;4.25;;;;;;;18.90;100.00;100087.94;5051620;28;20487;-68
2023/09/18 05:26:57;;;;;;;7.43;4.13;;;;;;;18.88;100.00;100093.72;5056489;28;20491;-68
2023/09/18 05:29:22;;;;;;;8.25;4.28;;;;;;;18.86;100.00;100095.16;5055924;28;20036;-69
2023/09/18 05:31:47;;;;;;;7.38;3.70;;;;;;;18.85;100.00;100079.78;5059868;28;20044;-68
2023/09/18 05:34:13;;;;;;;8.35;3.10;;;;;;;18.84;100.00;100073.50;5061309;28;20526;-67
2023/09/18 05:36:39;;;;;;;8.68;3.30;;;;;;;18.86;100.00;100078.72;5055331;28;20083;-68
2023/09/18 05:39:09;;;;;;;4.85;2.67;;;;;;;18.87;100.00;100074.84;5057674;28;20098;-68
2023/09/18 05:41:35;;;;;;;6.22;2.58;;;;;;;18.82;100.00;100078.44;5054948;28;20043;-68
2023/09/18 05:44:03;;;;;;;5.78;2.70;;;;;;;18.83;100.00;100082.84;5059277;28;20560;-68
2023/09/18 05:46:29;;;;;;;5.53;2.42;;;;;;;18.78;100.00;100080.16;5056720;28;20085;-67
2023/09/18 05:48:56;;;;;;;7.13;2.42;;;;;;;18.79;100.00;100087.28;5055327;28;20025;-67
2023/09/18 05:51:22;;;;;;;4.57;2.20;;;;;;;18.77;100.00;100095.78;5054266;28;20032;-69
2023/09/18 05:53:47;;;;;;;5.40;2.20;;;;;;;18.76;100.00;100098.84;5060163;28;20044;-69
2023/09/18 05:56:14;;;;;;;3.67;1.90;;;;;;;18.74;100.00;100093.66;5057414;28;20038;-69
2023/09/18 05:58:39;;;;;;;2.83;1.85;;;;;;;18.74;100.00;100104.63;5059555;28;20130;-69
2023/09/18 06:01:07;;;;;;;3.17;1.70;;;;;;;18.76;100.00;100104.31;5053069;28;20120;-69
2023/09/18 06:03:35;;;;;;;3.15;1.75;;;;;;;18.72;100.00;100119.72;5056757;28;20052;-69
2023/09/18 06:06:01;;;;;;;7.25;1.95;;;;;;;18.72;100.00;100122.47;5060352;28;20134;-69
2023/09/18 06:08:28;;;;;;;5.30;2.13;;;;;;;18.71;100.00;100116.19;5057463;28;20630;-70
2023/09/18 06:10:55;;;;;;;3.90;1.95;;;;;;;18.70;100.00;100124.69;5053826;28;20029;-68
2023/09/18 06:13:20;;;;;;;5.35;1.98;;;;;;;18.69;100.00;100123.88;5060687;28;20096;-68
2023/09/18 06:15:46;;;;;;;2.72;1.45;;;;;;;18.69;100.00;100120.31;5056537;28;20039;-69
2023/09/18 06:18:11;;;;;;;6.35;2.00;;;;;;;18.67;100.00;100128.03;5053543;28;20388;-69
2023/09/18 06:20:37;;;;;;;5.50;1.83;;;;;;;18.66;100.00;100121.75;5060065;28;20151;-69
2023/09/18 06:23:03;;;;;;;4.55;1.80;;;;;;;18.64;100.00;100114.91;5055631;28;20041;-69
2023/09/18 06:25:31;;;;;;;3.85;1.98;;;;;;;18.65;100.00;100127.53;5055655;28;20036;-68
2023/09/18 06:27:56;;;;;;;8.57;1.98;;;;;;;18.60;100.00;100129.22;5056968;28;20055;-68
2023/09/18 06:30:21;;;;;;;2.33;1.67;;;;;;;18.59;100.00;100133.06;5052859;28;20463;-71
2023/09/18 06:32:47;;;;;;;3.38;1.60;;;;;;;18.62;100.00;100131.66;5058963;28;20060;-71
2023/09/18 06:35:12;;;;;;;2.50;1.42;;;;;;;18.60;100.00;100128.41;5056453;28;20050;-70
2023/09/18 06:37:37;;;;;;;4.25;1.73;;;;;;;18.59;100.00;100141.28;5058180;28;20399;-71
2023/09/18 06:40:03;;;;;;;4.25;1.67;;;;;;;18.58;100.00;100139.66;5057026;28;20581;-69
2023/09/18 06:42:29;;;;;;;4.38;1.70;;;;;;;18.60;100.00;100155.81;5050994;28;20099;-69
2023/09/18 06:44:55;;;;;;;4.50;1.73;;;;;;;18.63;100.00;100143.44;5051055;28;20120;-71
2023/09/18 06:47:21;;;;;;;5.68;2.00;;;;;;;18.63;100.00;100146.16;5057483;28;20452;-71
2023/09/18 06:49:47;;;;;;;3.30;1.50;;;;;;;18.64;100.00;100148.59;5050902;28;20094;-72
2023/09/18 06:52:12;;;;;;;4.05;1.90;;;;;;;18.66;100.00;100167.50;5054979;28;20031;-71
2023/09/18 06:54:38;;;;;;;2.70;1.40;;;;;;;18.67;100.00;100164.47;5048815;28;20040;-69
2023/09/18 06:57:04;;;;;;;3.03;1.50;;;;;;;18.69;100.00;100175.97;5054780;28;20048;-72
2023/09/18 06:59:29;;;;;;;4.22;1.50;;;;;;;18.67;100.00;100171.88;5051558;28;20025;-71
2023/09/18 07:01:55;;;;;;;2.72;1.55;;;;;;;18.68;100.00;100177.06;5034448;28;20021;-73
2023/09/18 07:04:21;;;;;;;2.83;1.50;;;;;;;18.68;100.00;100179.81;5034942;28;20091;-72
2023/09/18 07:06:46;;;;;;;5.05;1.60;;;;;;;18.68;100.00;100168.03;5058316;28;20403;-73
2023/09/18 07:09:12;;;;;;;3.38;1.67;;;;;;;18.68;100.00;100163.34;5051034;28;20025;-69
2023/09/18 07:11:38;;;;;;;3.35;1.63;;;;;;;18.67;100.00;100171.88;5054455;28;20060;-69
2023/09/18 07:14:06;;;;;;;2.20;1.50;;;;;;;18.67;100.00;100171.88;5039548;28;20040;-70
2023/09/18 07:16:32;;;;;;;3.55;1.95;;;;;;;18.67;100.00;100178.16;5033892;28;20044;-70
2023/09/18 07:18:57;;;;;;;2.70;1.75;;;;;;;18.67;100.00;100169.94;5039630;28;20029;-70
2023/09/18 07:21:22;;;;;;;4.50;1.73;;;;;;;18.67;100.00;100189.13;5054222;28;20032;-71
2023/09/18 07:23:47;;;;;;;4.40;1.90;;;;;;;18.70;100.00;100179.50;5048823;28;20025;-68
2023/09/18 07:26:13;;;;;;;3.75;1.77;;;;;;;18.71;100.00;100178.41;5053341;28;20043;-68
2023/09/18 07:28:38;;;;;;;4.60;1.67;;;;;;;18.72;100.00;100175.38;5052891;28;20534;-68
2023/09/18 07:31:08;;;;;;;3.05;1.60;;;;;;;18.70;100.00;100190.47;5054740;28;20123;-70
2023/09/18 07:33:34;;;;;;;2.72;1.42;;;;;;;18.72;100.00;100190.97;5053968;28;20116;-68
2023/09/18 07:36:00;;;;;;;2.70;1.85;;;;;;;18.73;100.00;100187.94;5053758;28;20037;-68
2023/09/18 07:38:25;;;;;;;5.50;1.80;;;;;;;18.74;100.00;100191.50;5052296;28;20122;-68
2023/09/18 07:40:50;;;;;;;6.40;1.70;;;;;;;18.75;100.00;100201.34;5050340;28;20044;-68
2023/09/18 07:43:16;;;;;;;6.38;1.90;;;;;;;18.77;100.00;100199.94;5054161;28;20086;-71
2023/09/18 07:45:41;;;;;;;5.90;2.08;;;;;;;18.83;100.00;100202.63;5053216;28;20119;-69
2023/09/18 07:48:07;;;;;;;3.45;1.63;;;;;;;18.80;100.00;100187.59;5050157;28;20021;-68
2023/09/18 07:50:33;;;;;;;4.47;1.83;;;;;;;18.81;100.00;100191.13;5051564;28;20044;-68
2023/09/18 07:52:59;;;;;;;4.90;1.75;;;;;;;18.82;100.00;100196.31;5049710;28;20035;-69
2023/09/18 07:55:25;;;;;;;5.25;1.98;;;;;;;18.81;100.00;100191.97;5031205;28;20029;-69
2023/09/18 07:57:51;;;;;;;4.30;1.83;;;;;;;18.81;100.00;100194.72;5052506;28;20033;-68
2023/09/18 08:00:17;;;;;;;2.90;1.80;;;;;;;18.80;100.00;100184.84;5057609;28;20459;-70
2023/09/18 08:02:42;;;;;;;5.72;1.83;;;;;;;18.80;100.00;100182.09;5049727;28;20041;-70
2023/09/18 08:05:08;;;;;;;5.50;1.80;;;;;;;18.83;100.00;100180.72;5063391;28;20087;-70
2023/09/18 08:07:35;;;;;;;8.32;2.10;;;;;;;18.80;100.00;100186.78;5070187;28;20119;-70
2023/09/18 08:10:08;;;;;;;8.10;1.98;;;;;;;18.79;100.00;100202.38;5064135;28;20040;-71
2023/09/18 08:12:34;;;;;;;4.05;1.75;;;;;;;18.78;100.00;100201.59;5050974;28;20033;-70
2023/09/18 08:14:59;;;;;;;4.15;1.98;;;;;;;18.75;100.00;100207.66;5051270;28;20021;-71
2023/09/18 08:17:25;;;;;;;5.22;1.80;;;;;;;18.75;100.00;100198.59;5051864;28;20206;-70
2023/09/18 08:19:52;;;;;;;4.85;1.75;;;;;;;18.73;100.00;100198.91;5058958;28;20438;-69
2023/09/18 08:22:18;;;;;;;5.80;1.90;;;;;;;18.75;100.00;100210.41;5057402;28;20029;-71
2023/09/18 08:24:45;;;;;;;6.07;1.98;;;;;;;18.74;100.00;100211.50;5050662;28;20033;-70
2023/09/18 08:27:11;;;;;;;4.47;2.08;;;;;;;18.77;100.00;100213.66;5051581;28;20040;-70
2023/09/18 08:29:37;;;;;;;2.00;1.50;;;;;;;18.80;100.00;100214.19;5050195;28;20040;-70
2023/09/18 08:32:03;;;;;;;3.40;2.00;;;;;;;18.84;100.00;100223.44;5051304;28;20033;-70
2023/09/18 08:34:28;;;;;;;4.03;1.70;;;;;;;18.90;100.00;100220.38;5051502;28;20383;-74
2023/09/18 08:36:54;;;;;;;2.88;1.42;;;;;;;18.88;100.00;100238.22;5035881;28;20044;-74
2023/09/18 08:39:20;;;;;;;4.30;2.10;;;;;;;18.91;100.00;100240.38;5044567;28;20029;-74
2023/09/18 08:41:50;;;;;;;2.92;1.67;;;;;;;18.93;100.00;100238.13;5062328;28;20039;-75
2023/09/18 08:44:17;;;;;;;6.78;1.85;;;;;;;18.94;100.00;100239.78;5038256;28;20072;-73
2023/09/18 08:46:43;;;;;;;5.65;1.95;;;;;;;18.94;100.00;100242.50;5054891;28;20477;-72
2023/09/18 08:49:10;;;;;;;4.70;1.77;;;;;;;18.97;100.00;100244.66;5055132;28;20029;-73
2023/09/18 08:51:36;;;;;;;3.33;2.00;;;;;;;18.97;100.00;100241.91;5055719;28;20487;-74
2023/09/18 08:54:04;;;;;;;3.72;1.90;;;;;;;19.03;100.00;100239.94;5068579;28;20032;-71
2023/09/18 08:56:31;;;;;;;4.53;1.70;;;;;;;19.02;100.00;100238.28;5038617;28;20431;-73
2023/09/18 08:58:57;;;;;;;4.40;1.83;;;;;;;19.09;100.00;100239.53;5060031;28;20066;-75
2023/09/18 09:01:22;;;;;;;7.47;1.98;;;;;;;19.15;100.00;100236.75;5049335;28;20032;-72
2023/09/18 09:03:48;;;;;;;7.70;1.90;;;;;;;19.21;100.00;100241.03;5074247;28;20048;-73
2023/09/18 09:06:14;;;;;;;4.63;1.92;;;;;;;19.23;100.00;100239.59;5075022;28;20032;-73
2023/09/18 09:08:39;;;;;;;5.10;1.83;;;;;;;19.32;100.00;100238.94;5074369;28;20082;-72
2023/09/18 09:11:05;;;;;;;6.53;1.95;;;;;;;19.37;100.00;100245.16;5073487;28;20028;-73
2023/09/18 09:13:31;;;;;;;4.97;2.50;;;;;;;19.42;100.00;100233.28;5054369;28;20476;-73
2023/09/18 09:15:58;;;;;;;6.40;2.47;;;;;;;19.51;100.00;100234.22;5055687;28;20040;-73
2023/09/18 09:18:26;;;;;;;5.15;2.20;;;;;;;19.55;100.00;100250.91;5073189;28;20040;-72
2023/09/18 09:20:59;;;;;;;6.65;2.22;;;;;;;19.64;100.00;100255.41;5074250;28;20031;-72
2023/09/18 09:23:30;;;;;;;7.28;2.28;;;;;;;19.68;100.00;100263.84;5062965;28;20358;-74
2023/09/18 09:26:13;;;;;;;8.47;2.50;;;;;;;19.74;100.00;100270.09;5069444;28;20052;-72
2023/09/18 09:28:38;;;;;;;8.75;2.40;;;;;;;19.74;100.00;100267.34;5050603;28;20017;-72
2023/09/18 09:31:04;;;;;;;7.57;2.30;;;;;;;19.79;100.00;100261.78;5059258;28;20055;-73
2023/09/18 09:33:30;;;;;;;4.40;1.83;;;;;;;19.88;100.00;100265.44;5058607;28;20034;-72
2023/09/18 09:35:56;;;;;;;6.47;2.30;;;;;;;19.91;100.00;100270.34;5065610;28;20116;-75
2023/09/18 09:38:29;;;;;;;11.52;2.95;;;;;;;19.88;100.00;100273.69;5058622;28;20021;-74
2023/09/18 09:40:54;;;;;;;5.43;2.38;;;;;;;19.87;100.00;100269.34;5048364;28;20095;-72
2023/09/18 09:43:20;;;;;;;5.68;2.38;;;;;;;19.88;100.00;100275.63;5064072;28;20036;-76
2023/09/18 09:45:46;;;;;;;5.53;1.98;;;;;;;19.91;100.00;100261.28;5044699;28;20446;-77
2023/09/18 09:48:11;;;;;;;5.43;2.05;;;;;;;19.95;100.00;100252.16;5054699;28;20419;-74
2023/09/18 09:50:47;;;;;;;4.75;2.35;;;;;;;19.98;100.00;100264.47;5053974;28;20024;-73
2023/09/18 09:53:13;;;;;;;6.75;2.30;;;;;;;20.00;100.00;100262.22;5061189;28;20383;-74
2023/09/18 09:55:40;;;;;;;6.50;2.42;;;;;;;20.03;100.00;100255.31;5058351;28;20035;-72
2023/09/18 09:58:07;;;;;;;4.18;2.00;;;;;;;20.08;100.00;100268.94;5064028;28;20029;-73
2023/09/18 10:00:43;;;;;;;9.40;2.58;;;;;;;20.08;100.00;100274.44;5070030;28;20391;-73
2023/09/18 10:03:13;;;;;;;6.32;2.03;;;;;;;20.11;100.00;100279.31;5055302;28;20389;-73
2023/09/18 10:05:41;;;;;;;5.40;2.13;;;;;;;20.11;100.00;100274.66;5035720;28;20121;-73
2023/09/18 10:08:11;;;;;;;4.50;2.08;;;;;;;20.15;100.00;100278.41;5053896;28;20032;-72
2023/09/18 10:10:39;;;;;;;4.97;2.20;;;;;;;20.22;100.00;100280.78;5053521;28;20033;-72
2023/09/18 10:13:12;;;;;;;6.28;2.05;;;;;;;20.24;100.00;100291.47;5053530;28;20032;-75
2023/09/18 10:15:38;;;;;;;5.10;2.05;;;;;;;20.25;100.00;100282.91;5053674;28;20033;-74
2023/09/18 10:18:08;;;;;;;6.93;2.17;;;;;;;20.31;100.00;100295.44;5062865;28;20043;-72
2023/09/18 10:20:42;;;;;;;7.15;2.30;;;;;;;20.33;100.00;100290.44;5072356;28;20050;-72
2023/09/18 10:23:17;;;;;;;7.28;2.30;;;;;;;20.41;100.00;100277.94;5073261;28;20376;-72
2023/09/18 10:25:43;;;;;;;3.85;2.10;;;;;;;20.54;100.00;100276.31;5073100;28;20028;-72
2023/09/18 10:28:12;;;;;;;5.63;2.28;;;;;;;20.57;100.00;100286.69;5056303;28;20068;-72
2023/09/18 10:30:37;;;;;;;8.90;2.20;;;;;;;20.65;100.00;100294.25;5053122;28;20025;-72
2023/09/18 10:33:03;;;;;;;5.80;2.15;;;;;;;20.74;100.00;100291.59;5053196;28;20083;-73
2023/09/18 10:35:29;;;;;;;5.85;2.20;;;;;;;20.79;100.00;100286.00;5035016;28;20021;-73
2023/09/18 10:37:55;;;;;;;8.75;3.00;;;;;;;20.75;100.00;100286.91;5068706;28;20040;-72
2023/09/18 10:40:22;;;;;;;6.20;1.98;;;;;;;20.66;100.00;100301.38;5061547;28;20028;-70
2023/09/18 10:42:50;;;;;;;4.80;2.25;;;;;;;20.61;100.00;100306.94;5063491;28;20044;-73
2023/09/18 10:45:15;;;;;;;4.05;2.33;;;;;;;20.56;100.00;100300.72;5054563;28;20582;-72
2023/09/18 10:47:47;;;;;;;9.60;2.72;;;;;;;20.49;100.00;100298.41;5057406;28;20151;-73
2023/09/18 10:50:23;;;;;;;6.72;2.40;;;;;;;20.45;100.00;100295.44;5059716;28;20035;-72
2023/09/18 10:52:48;;;;;;;8.05;2.63;;;;;;;20.40;100.00;100287.31;5072650;28;20025;-71
2023/09/18 10:55:14;;;;;;;5.18;2.35;;;;;;;20.38;100.00;100284.03;5072481;28;20116;-71
2023/09/18 10:57:57;;;;;;;8.27;2.35;;;;;;;20.35;100.00;100285.47;5072755;28;20032;-72
2023/09/18 11:00:27;;;;;;;7.45;2.85;;;;;;;20.32;100.00;100279.75;5070836;28;20052;-72
2023/09/18 11:02:53;;;;;;;6.40;2.60;;;;;;;20.34;100.00;100277.53;5072604;28;20021;-71
2023/09/18 11:05:35;;;;;;;3.63;2.35;;;;;;;20.41;100.00;100277.94;5072710;28;20555;-72
2023/09/18 11:08:29;;;;;;;7.53;2.40;;;;;;;20.59;100.00;100284.44;5071917;28;20111;-72
2023/09/18 11:11:19;;;;;;;9.73;2.30;;;;;;;20.77;100.00;100279.16;5071984;28;20062;-71
2023/09/18 11:13:50;;;;;;;6.97;2.40;;;;;;;20.88;100.00;100286.09;5072396;28;20031;-72